createdAt,value
2018-07-09T00:01:08.246Z,16.10
2018-07-09T00:03:36.338Z,16.20
2018-07-09T00:06:04.638Z,16.20
2018-07-09T00:08:32.700Z,16.40
2018-07-09T00:11:02.868Z,16.40
2018-07-09T00:13:31.885Z,16.50
2018-07-09T00:16:00.371Z,16.40
2018-07-09T00:18:28.408Z,16.40
2018-07-09T00:20:56.448Z,16.30
2018-07-09T00:23:24.476Z,16.30
2018-07-09T00:25:53.307Z,16.20
2018-07-09T00:28:21.781Z,16.20
2018-07-09T00:30:49.650Z,16.30
2018-07-09T00:33:18.003Z,16.20
2018-07-09T00:35:46.343Z,16.20
2018-07-09T00:38:14.332Z,16.00
2018-07-09T00:40:42.506Z,16.10
2018-07-09T00:43:10.450Z,16.00
2018-07-09T00:45:38.677Z,16.00
2018-07-09T00:48:06.513Z,16.00
2018-07-09T00:50:34.697Z,16.00
2018-07-09T00:53:03.068Z,15.90
2018-07-09T00:55:31.185Z,15.90
2018-07-09T00:57:59.676Z,15.90
2018-07-09T01:00:27.680Z,16.00
2018-07-09T01:02:59.627Z,15.90
2018-07-09T01:05:27.745Z,15.70
2018-07-09T01:07:55.884Z,15.60
2018-07-09T01:10:23.955Z,15.50
2018-07-09T01:12:51.910Z,15.40
2018-07-09T01:15:19.832Z,15.40
2018-07-09T01:17:59.548Z,15.40
2018-07-09T01:22:55.477Z,15.20
2018-07-09T01:25:23.501Z,15.20
2018-07-09T01:27:51.599Z,15.00
2018-07-09T01:30:19.699Z,15.00
2018-07-09T01:32:47.610Z,14.90
2018-07-09T01:35:15.513Z,14.80
2018-07-09T01:37:43.426Z,14.70
2018-07-09T01:40:11.553Z,14.90
2018-07-09T01:42:39.756Z,14.90
2018-07-09T01:45:07.892Z,14.80
2018-07-09T01:47:36.143Z,14.70
2018-07-09T01:50:04.174Z,14.60
2018-07-09T01:52:32.327Z,14.50
2018-07-09T01:55:00.831Z,14.50
2018-07-09T01:57:28.893Z,14.50
2018-07-09T01:59:57.057Z,14.50
2018-07-09T02:02:25.064Z,14.40
2018-07-09T02:07:20.732Z,14.50
2018-07-09T02:09:48.985Z,14.60
2018-07-09T02:12:16.960Z,14.60
2018-07-09T02:14:44.973Z,14.50
2018-07-09T02:19:40.786Z,14.50
2018-07-09T02:22:08.668Z,14.40
2018-07-09T02:24:36.801Z,14.40
2018-07-09T02:27:04.800Z,14.40
2018-07-09T02:29:32.960Z,14.30
2018-07-09T02:32:01.076Z,14.30
2018-07-09T02:34:29.158Z,14.30
2018-07-09T02:36:57.816Z,14.40
2018-07-09T02:39:25.678Z,14.50
2018-07-09T02:41:53.838Z,14.60
2018-07-09T02:44:23.040Z,14.60
2018-07-09T02:46:51.446Z,14.50
2018-07-09T02:49:19.848Z,14.40
2018-07-09T02:51:48.285Z,14.20
2018-07-09T02:54:16.775Z,14.20
2018-07-09T02:56:44.757Z,14.10
2018-07-09T02:59:13.308Z,14.10
2018-07-09T03:01:41.184Z,14.00
2018-07-09T03:04:09.913Z,14.00
2018-07-09T03:06:37.800Z,13.90
2018-07-09T03:09:06.676Z,13.90
2018-07-09T03:11:35.040Z,13.90
2018-07-09T03:14:03.019Z,13.90
2018-07-09T03:16:31.281Z,14.00
2018-07-09T03:18:59.635Z,14.00
2018-07-09T03:21:27.729Z,13.90
2018-07-09T03:23:55.674Z,13.80
2018-07-09T03:26:23.640Z,13.80
2018-07-09T03:28:51.793Z,13.80
2018-07-09T03:31:19.807Z,13.80
2018-07-09T03:33:47.974Z,13.80
2018-07-09T03:36:17.403Z,13.80
2018-07-09T03:38:45.162Z,13.90
2018-07-09T03:41:13.259Z,14.00
2018-07-09T03:43:41.351Z,13.90
2018-07-09T03:46:09.313Z,13.80
2018-07-09T03:48:37.363Z,13.80
2018-07-09T03:51:05.523Z,13.80
2018-07-09T03:53:33.755Z,13.80
2018-07-09T03:56:02.010Z,13.80
2018-07-09T03:58:30.069Z,13.80
2018-07-09T04:03:26.626Z,14.00
2018-07-09T04:05:54.705Z,14.20
2018-07-09T04:08:22.669Z,14.30
2018-07-09T04:10:50.501Z,14.40
2018-07-09T04:13:18.488Z,14.40
2018-07-09T04:15:46.352Z,14.30
2018-07-09T04:18:14.238Z,14.30
2018-07-09T04:20:42.351Z,14.20
2018-07-09T04:23:10.229Z,14.30
2018-07-09T04:25:38.263Z,14.20
2018-07-09T04:28:06.245Z,14.30
2018-07-09T04:30:34.222Z,14.40
2018-07-09T04:33:02.369Z,14.60
2018-07-09T04:35:30.363Z,14.80
2018-07-09T04:37:58.385Z,14.80
2018-07-09T04:40:26.631Z,14.80
2018-07-09T04:42:54.534Z,14.70
2018-07-09T04:45:22.608Z,14.70
2018-07-09T04:47:50.564Z,14.70
2018-07-09T04:50:18.502Z,14.80
2018-07-09T04:52:46.427Z,14.90
2018-07-09T04:55:14.489Z,15.00
2018-07-09T04:57:42.467Z,15.10
2018-07-09T05:00:10.436Z,15.10
2018-07-09T05:02:38.454Z,15.20
2018-07-09T05:05:06.482Z,15.20
2018-07-09T05:07:34.504Z,15.30
2018-07-09T05:10:02.902Z,15.40
2018-07-09T05:12:30.898Z,15.50
2018-07-09T05:14:59.050Z,15.70
2018-07-09T05:17:27.011Z,15.80
2018-07-09T05:19:54.998Z,16.00
2018-07-09T05:24:51.005Z,16.10
2018-07-09T05:27:18.943Z,16.20
2018-07-09T05:29:46.882Z,16.30
2018-07-09T05:32:14.782Z,16.30
2018-07-09T05:34:42.786Z,16.50
2018-07-09T05:37:10.850Z,16.60
2018-07-09T05:39:39.663Z,16.80
2018-07-09T05:42:07.649Z,16.80
2018-07-09T05:44:36.197Z,17.00
2018-07-09T05:47:04.346Z,17.40
2018-07-09T05:49:32.776Z,17.70
2018-07-09T05:52:01.068Z,17.90
2018-07-09T05:54:29.108Z,18.30
2018-07-09T05:56:57.283Z,18.60
2018-07-09T05:59:25.286Z,18.70
2018-07-09T06:01:53.274Z,18.70
2018-07-09T06:04:21.371Z,18.70
2018-07-09T06:06:50.247Z,18.80
2018-07-09T06:09:18.147Z,18.70
2018-07-09T06:11:46.165Z,18.90
2018-07-09T06:14:14.163Z,18.90
2018-07-09T06:16:42.222Z,19.20
2018-07-09T06:19:10.180Z,19.50
2018-07-09T06:24:06.310Z,19.80
2018-07-09T06:26:34.385Z,20.20
2018-07-09T06:29:02.519Z,21.00
2018-07-09T06:31:30.770Z,21.80
2018-07-09T06:33:58.865Z,23.10
2018-07-09T06:36:27.375Z,23.50
2018-07-09T06:38:55.461Z,23.50
2018-07-09T06:41:23.446Z,23.70
2018-07-09T06:43:51.698Z,23.80
2018-07-09T06:46:19.887Z,24.30
2018-07-09T06:48:47.821Z,25.00
2018-07-09T06:51:15.761Z,25.30
2018-07-09T06:53:43.677Z,25.60
2018-07-09T06:56:11.677Z,26.00
2018-07-09T06:58:39.646Z,26.10
2018-07-09T07:01:07.613Z,26.10
2018-07-09T07:03:35.643Z,26.10
2018-07-09T07:06:04.122Z,26.20
2018-07-09T07:08:32.532Z,26.40
2018-07-09T07:11:00.686Z,26.70
2018-07-09T07:13:28.832Z,27.70
2018-07-09T07:15:56.842Z,27.90
2018-07-09T07:18:24.745Z,27.80
2018-07-09T07:20:52.899Z,27.20
2018-07-09T07:23:21.993Z,26.60
2018-07-09T07:25:50.035Z,25.90
2018-07-09T07:28:18.295Z,25.60
2018-07-09T07:30:47.998Z,25.90
2018-07-09T07:33:19.256Z,26.20
2018-07-09T07:35:47.354Z,25.80
2018-07-09T07:38:15.343Z,26.00
2018-07-09T07:40:46.743Z,26.10
2018-07-09T07:43:14.805Z,26.40
2018-07-09T07:45:42.936Z,26.70
2018-07-09T07:48:10.960Z,26.80
2018-07-09T07:50:38.928Z,26.70
2018-07-09T07:53:06.820Z,27.00
2018-07-09T07:55:34.929Z,27.30
2018-07-09T07:58:03.036Z,27.00
2018-07-09T08:00:31.268Z,26.80
2018-07-09T08:02:59.499Z,26.30
2018-07-09T08:05:27.375Z,26.10
2018-07-09T08:07:55.331Z,25.60
2018-07-09T08:10:23.469Z,25.40
2018-07-09T08:15:19.418Z,25.50
2018-07-09T08:17:47.502Z,25.70
2018-07-09T08:20:15.584Z,25.90
2018-07-09T08:22:43.478Z,26.40
2018-07-09T08:25:11.758Z,26.70
2018-07-09T08:27:39.519Z,26.70
2018-07-09T08:30:07.682Z,27.00
2018-07-09T08:32:36.190Z,27.00
2018-07-09T08:35:04.508Z,26.70
2018-07-09T08:37:32.577Z,26.70
2018-07-09T08:40:00.856Z,26.80
2018-07-09T08:42:28.834Z,26.80
2018-07-09T08:44:56.996Z,26.90
2018-07-09T08:47:24.974Z,27.00
2018-07-09T08:49:52.925Z,26.90
2018-07-09T08:52:21.966Z,27.20
2018-07-09T08:54:49.946Z,27.30
2018-07-09T08:57:18.053Z,27.20
2018-07-09T08:59:46.011Z,26.80
2018-07-09T09:04:46.206Z,26.30
2018-07-09T09:07:14.067Z,26.20
2018-07-09T09:09:42.026Z,25.80
2018-07-09T09:12:10.225Z,25.80
2018-07-09T09:14:38.308Z,26.10
2018-07-09T09:17:06.449Z,26.40
2018-07-09T09:19:34.508Z,26.60
2018-07-09T09:22:02.642Z,26.70
2018-07-09T09:24:32.881Z,26.60
2018-07-09T09:27:01.006Z,26.20
2018-07-09T09:29:29.061Z,26.20
2018-07-09T09:31:57.104Z,26.10
2018-07-09T09:34:25.365Z,25.80
2018-07-09T09:36:53.270Z,25.70
2018-07-09T09:39:21.323Z,26.00
2018-07-09T09:41:49.272Z,26.20
2018-07-09T09:44:17.181Z,26.60
2018-07-09T09:46:45.168Z,26.70
2018-07-09T09:49:13.079Z,26.40
2018-07-09T09:51:41.081Z,26.30
2018-07-09T09:54:09.468Z,26.30
2018-07-09T09:56:37.409Z,26.20
2018-07-09T09:59:05.656Z,26.10
2018-07-09T10:01:33.568Z,26.20
2018-07-09T10:04:01.610Z,26.30
2018-07-09T10:06:29.702Z,26.30
2018-07-09T10:08:57.948Z,26.30
2018-07-09T10:11:25.913Z,26.50
2018-07-09T10:13:54.017Z,26.40
2018-07-09T10:16:23.500Z,26.00
2018-07-09T10:18:51.571Z,26.20
2018-07-09T10:21:19.449Z,26.40
2018-07-09T10:23:47.418Z,26.50
2018-07-09T10:26:15.421Z,26.80
2018-07-09T10:28:43.417Z,27.10
2018-07-09T10:31:11.493Z,27.10
2018-07-09T10:33:39.358Z,27.00
2018-07-09T10:36:07.470Z,26.90
2018-07-09T10:38:35.489Z,26.40
2018-07-09T10:41:03.845Z,26.40
2018-07-09T10:43:32.789Z,26.30
2018-07-09T10:46:01.136Z,26.10
2018-07-09T10:48:30.943Z,26.30
2018-07-09T10:51:00.313Z,26.40
2018-07-09T10:53:29.252Z,26.40
2018-07-09T10:55:58.167Z,26.70
2018-07-09T10:58:27.831Z,26.80
2018-07-09T11:00:56.484Z,26.30
2018-07-09T11:03:24.639Z,26.10
2018-07-09T11:05:52.825Z,26.00
2018-07-09T11:08:26.001Z,26.30
2018-07-09T11:10:53.988Z,26.70
2018-07-09T11:13:21.992Z,27.00
2018-07-09T11:15:51.371Z,27.20
2018-07-09T11:18:19.373Z,27.20
2018-07-09T11:20:47.550Z,27.30
2018-07-09T11:23:15.494Z,27.30
2018-07-09T11:28:11.561Z,27.30
2018-07-09T11:30:39.555Z,26.80
2018-07-09T11:33:07.862Z,26.60
2018-07-09T11:35:36.030Z,26.10
2018-07-09T11:38:05.421Z,25.80
2018-07-09T11:40:33.806Z,26.10
2018-07-09T11:43:01.820Z,26.60
2018-07-09T11:45:30.308Z,26.90
2018-07-09T11:47:59.268Z,27.20
2018-07-09T11:50:28.908Z,27.50
2018-07-09T11:52:58.167Z,27.60
2018-07-09T11:55:26.931Z,27.90
2018-07-09T11:57:55.079Z,28.10
2018-07-09T12:00:23.076Z,28.10
2018-07-09T12:02:51.161Z,28.40
2018-07-09T12:05:19.042Z,28.60
2018-07-09T12:07:47.110Z,28.30
2018-07-09T12:10:15.125Z,27.80
2018-07-09T12:12:43.084Z,27.50
2018-07-09T12:15:11.017Z,27.30
2018-07-09T12:17:38.954Z,27.50
2018-07-09T12:20:06.942Z,27.40
2018-07-09T12:22:35.038Z,27.60
2018-07-09T12:25:04.021Z,27.60
2018-07-09T12:27:32.066Z,27.50
2018-07-09T12:30:00.177Z,27.30
2018-07-09T12:32:28.248Z,27.30
2018-07-09T12:34:56.579Z,27.60
2018-07-09T12:37:24.663Z,27.50
2018-07-09T12:40:02.994Z,27.60
2018-07-09T12:42:31.074Z,27.40
2018-07-09T12:44:59.254Z,27.20
2018-07-09T12:47:27.336Z,27.30
2018-07-09T12:50:02.207Z,27.20
2018-07-09T12:54:58.888Z,26.80
2018-07-09T12:57:27.253Z,26.80
2018-07-09T12:59:55.638Z,26.90
2018-07-09T13:02:23.696Z,27.00
2018-07-09T13:04:51.773Z,27.20
2018-07-09T13:07:19.760Z,27.20
2018-07-09T13:09:47.681Z,27.40
2018-07-09T13:12:23.057Z,27.60
2018-07-09T13:14:51.274Z,27.40
2018-07-09T13:17:20.600Z,27.50
2018-07-09T13:19:48.702Z,27.40
2018-07-09T13:22:16.680Z,27.40
2018-07-09T13:24:48.966Z,27.50
2018-07-09T13:27:17.081Z,27.80
2018-07-09T13:29:45.639Z,27.90
2018-07-09T13:32:13.996Z,27.90
2018-07-09T13:34:42.806Z,27.60
2018-07-09T13:37:11.061Z,27.60
2018-07-09T13:39:39.168Z,27.40
2018-07-09T13:42:07.450Z,27.20
2018-07-09T13:44:35.710Z,27.00
2018-07-09T13:47:03.896Z,26.90
2018-07-09T13:49:32.234Z,26.60
2018-07-09T13:52:00.438Z,26.80
2018-07-09T13:54:29.035Z,26.90
2018-07-09T13:57:03.626Z,26.90
2018-07-09T13:59:31.644Z,26.80
2018-07-09T14:01:59.668Z,26.90
2018-07-09T14:04:27.564Z,27.20
2018-07-09T14:06:59.041Z,27.60
2018-07-09T14:09:27.155Z,27.50
2018-07-09T14:11:55.163Z,27.70
2018-07-09T14:14:23.628Z,27.90
2018-07-09T14:16:51.560Z,28.20
2018-07-09T14:20:38.324Z,27.80
2018-07-09T14:23:07.458Z,28.00
2018-07-09T14:25:35.638Z,28.40
2018-07-09T14:28:03.712Z,28.40
2018-07-09T14:30:31.776Z,28.30
2018-07-09T14:32:59.994Z,28.20
2018-07-09T14:35:28.057Z,28.20
2018-07-09T14:37:57.467Z,28.20
2018-07-09T14:40:26.206Z,28.20
2018-07-09T14:42:54.112Z,28.40
2018-07-09T14:45:22.186Z,28.40
2018-07-09T14:47:50.179Z,28.40
2018-07-09T14:50:18.094Z,28.30
2018-07-09T14:52:46.451Z,28.10
2018-07-09T14:55:14.591Z,27.60
2018-07-09T14:57:42.578Z,27.60
2018-07-09T15:00:10.713Z,27.60
2018-07-09T15:02:39.164Z,27.50
2018-07-09T15:05:19.341Z,27.00
2018-07-09T15:07:47.436Z,27.10
2018-07-09T15:10:15.386Z,27.30
2018-07-09T15:12:43.609Z,27.40
2018-07-09T15:15:12.241Z,27.40
2018-07-09T15:17:40.342Z,27.40
2018-07-09T15:20:09.536Z,27.50
2018-07-09T15:22:37.640Z,27.70
2018-07-09T15:27:34.449Z,27.00
2018-07-09T15:30:02.532Z,26.50
2018-07-09T15:32:43.179Z,26.20
2018-07-09T15:35:12.090Z,26.00
2018-07-09T15:37:40.139Z,26.00
2018-07-09T15:40:08.315Z,26.00
2018-07-09T15:42:54.516Z,26.00
2018-07-09T15:45:22.285Z,26.10
2018-07-09T15:47:50.143Z,26.10
2018-07-09T15:52:56.249Z,25.80
2018-07-09T15:55:24.241Z,25.70
2018-07-09T15:57:52.458Z,25.70
2018-07-09T16:00:20.658Z,25.60
2018-07-09T16:02:48.628Z,25.70
2018-07-09T16:05:17.589Z,25.80
2018-07-09T16:07:45.557Z,25.80
2018-07-09T16:10:13.595Z,25.80
2018-07-09T16:12:41.722Z,25.90
2018-07-09T16:15:09.985Z,26.00
2018-07-09T16:17:38.227Z,26.20
2018-07-09T16:20:14.447Z,26.60
2018-07-09T16:22:56.937Z,26.60
2018-07-09T16:25:25.054Z,26.60
2018-07-09T16:27:52.968Z,26.70
2018-07-09T16:30:20.867Z,26.80
2018-07-09T16:32:48.865Z,27.00
2018-07-09T16:35:16.725Z,27.00
2018-07-09T16:37:44.795Z,26.80
2018-07-09T16:40:12.801Z,26.70
2018-07-09T16:42:40.776Z,26.30
2018-07-09T16:47:36.469Z,25.50
2018-07-09T16:50:04.442Z,25.50
2018-07-09T16:52:33.303Z,25.50
2018-07-09T16:55:01.761Z,25.50
2018-07-09T16:57:30.288Z,25.70
2018-07-09T16:59:58.887Z,25.80
2018-07-09T17:02:27.353Z,25.70
2018-07-09T17:04:55.567Z,25.50
2018-07-09T17:07:23.530Z,25.40
2018-07-09T17:09:51.541Z,25.20
2018-07-09T17:12:19.551Z,25.00
2018-07-09T17:14:47.639Z,24.90
2018-07-09T17:17:15.682Z,24.80
2018-07-09T17:19:44.848Z,24.60
2018-07-09T17:22:12.785Z,24.50
2018-07-09T17:24:40.961Z,24.30
2018-07-09T17:27:09.069Z,24.20
2018-07-09T17:29:36.986Z,24.10
2018-07-09T17:32:05.560Z,24.10
2018-07-09T17:34:34.046Z,24.00
2018-07-09T17:37:02.394Z,24.00
2018-07-09T17:39:30.542Z,24.00
2018-07-09T17:41:59.249Z,24.00
2018-07-09T17:44:28.352Z,24.00
2018-07-09T17:46:57.249Z,23.90
2018-07-09T17:49:25.298Z,23.90
2018-07-09T17:51:53.455Z,23.70
2018-07-09T17:54:21.667Z,23.60
2018-07-09T17:56:49.559Z,23.40
2018-07-09T17:59:17.561Z,23.10
2018-07-09T18:01:45.686Z,22.80
2018-07-09T18:04:13.682Z,22.70
2018-07-09T18:06:41.986Z,22.40
2018-07-09T18:09:10.887Z,22.20
2018-07-09T18:11:38.944Z,22.10
2018-07-09T18:14:07.120Z,21.90
2018-07-09T18:16:36.097Z,21.90
2018-07-09T18:19:04.104Z,21.80
2018-07-09T18:21:33.524Z,21.80
2018-07-09T18:24:02.061Z,21.80
2018-07-09T18:28:58.923Z,21.70
2018-07-09T18:31:28.729Z,21.60
2018-07-09T18:33:57.159Z,21.50
2018-07-09T18:36:25.208Z,21.50
2018-07-09T18:38:53.304Z,21.50
2018-07-09T18:41:21.425Z,21.40
2018-07-09T18:43:49.474Z,21.40
2018-07-09T18:46:21.570Z,21.20
2018-07-09T18:48:49.826Z,21.20
2018-07-09T18:51:18.984Z,21.10
2018-07-09T18:53:49.408Z,21.00
2018-07-09T18:56:17.890Z,20.90
2018-07-09T18:58:45.976Z,20.90
2018-07-09T19:01:18.507Z,20.90
2018-07-09T19:03:46.574Z,20.80
2018-07-09T19:06:26.378Z,20.70
2018-07-09T19:08:59.554Z,20.70
2018-07-09T19:11:28.191Z,20.60
2018-07-09T19:13:56.605Z,20.60
2018-07-09T19:16:31.539Z,20.50
2018-07-09T19:19:10.725Z,20.40
2018-07-09T19:21:51.931Z,20.40
2018-07-09T19:24:18.701Z,20.40
2018-07-09T19:26:45.561Z,20.40
2018-07-09T19:29:12.311Z,20.30
2018-07-09T19:31:39.074Z,20.20
2018-07-09T19:34:06.154Z,20.10
2018-07-09T19:36:32.941Z,20.10
2018-07-09T19:38:59.703Z,20.00
2018-07-09T19:41:26.904Z,20.00
2018-07-09T19:43:54.741Z,19.90
2018-07-09T19:46:21.877Z,19.90
2018-07-09T19:48:50.505Z,19.90
2018-07-09T19:51:17.652Z,19.80
2018-07-09T19:53:44.362Z,19.80
2018-07-09T19:56:11.197Z,19.80
2018-07-09T19:58:37.831Z,19.80
2018-07-09T20:01:04.487Z,19.80
2018-07-09T20:03:31.422Z,19.70
2018-07-09T20:08:32.658Z,19.60
2018-07-09T20:11:05.007Z,19.60
2018-07-09T20:14:03.356Z,19.60
2018-07-09T20:17:35.465Z,19.60
2018-07-09T20:20:02.560Z,19.50
2018-07-09T20:22:29.501Z,19.50
2018-07-09T20:24:56.856Z,19.40
2018-07-09T20:27:23.617Z,19.40
2018-07-09T20:29:50.297Z,19.30
2018-07-09T20:32:20.106Z,19.30
2018-07-09T20:37:13.952Z,19.30
2018-07-09T20:39:40.594Z,19.30
2018-07-09T20:42:07.388Z,19.30
2018-07-09T20:44:34.139Z,19.30
2018-07-09T20:47:00.838Z,19.20
2018-07-09T20:49:27.594Z,19.20
2018-07-09T20:51:54.333Z,19.20
2018-07-09T20:54:20.972Z,19.10
2018-07-09T20:56:47.579Z,19.10
2018-07-09T20:59:14.157Z,19.00
2018-07-09T21:01:40.845Z,18.90
2018-07-09T21:04:12.908Z,18.80
2018-07-09T21:06:39.648Z,18.70
2018-07-09T21:09:06.282Z,18.60
2018-07-09T21:11:33.005Z,18.60
2018-07-09T21:13:59.689Z,18.60
2018-07-09T21:16:26.372Z,18.60
2018-07-09T21:18:52.978Z,18.60
2018-07-09T21:21:19.664Z,18.60
2018-07-09T21:23:46.376Z,18.60
2018-07-09T21:26:13.032Z,18.50
2018-07-09T21:28:42.961Z,18.60
2018-07-09T21:31:09.586Z,18.60
2018-07-09T21:33:36.409Z,18.60
2018-07-09T21:36:03.213Z,18.50
2018-07-09T21:38:29.813Z,18.40
2018-07-09T21:40:56.578Z,18.40
2018-07-09T21:43:23.645Z,18.30
2018-07-09T21:45:50.344Z,18.20
2018-07-09T21:48:17.438Z,18.20
2018-07-09T21:50:44.044Z,18.10
2018-07-09T21:53:11.038Z,18.00
2018-07-09T21:55:37.753Z,18.00
2018-07-09T21:58:04.461Z,18.00
2018-07-09T22:02:58.427Z,18.00
2018-07-09T22:05:25.383Z,18.00
2018-07-09T22:07:52.102Z,17.90
2018-07-09T22:10:18.772Z,17.90
2018-07-09T22:12:45.590Z,17.90
2018-07-09T22:15:12.347Z,17.90
2018-07-09T22:17:39.536Z,17.90
2018-07-09T22:20:06.402Z,17.90
2018-07-09T22:22:33.408Z,17.90
2018-07-09T22:25:00.090Z,17.80
2018-07-09T22:27:26.770Z,17.80
2018-07-09T22:29:53.460Z,17.80
2018-07-09T22:32:21.625Z,17.70
2018-07-09T22:34:49.549Z,17.70
2018-07-09T22:37:17.758Z,17.70
2018-07-09T22:39:45.869Z,17.70
2018-07-09T22:42:13.843Z,17.70
2018-07-09T22:44:41.907Z,17.70
2018-07-09T22:47:09.884Z,17.60
2018-07-09T22:49:37.947Z,17.60
2018-07-09T22:52:06.350Z,17.60
2018-07-09T22:54:34.430Z,17.60
2018-07-09T22:57:02.319Z,17.50
2018-07-09T22:59:30.381Z,17.50
2018-07-09T23:01:58.337Z,17.50
2018-07-09T23:04:26.908Z,17.40
2018-07-09T23:06:54.828Z,17.60
2018-07-09T23:09:57.668Z,17.60
2018-07-09T23:17:16.301Z,17.60
2018-07-09T23:22:20.030Z,17.60
2018-07-09T23:24:46.675Z,17.60
2018-07-09T23:27:13.409Z,17.60
2018-07-09T23:29:40.069Z,17.60
2018-07-09T23:32:06.755Z,17.60
2018-07-09T23:34:33.481Z,17.60
2018-07-09T23:37:00.280Z,17.50
2018-07-09T23:39:26.975Z,17.40
2018-07-09T23:41:53.801Z,17.30
2018-07-09T23:44:20.501Z,17.30
2018-07-09T23:46:47.218Z,17.30
2018-07-09T23:49:13.938Z,17.20
2018-07-09T23:51:40.618Z,17.20
2018-07-09T23:54:07.251Z,17.20
2018-07-09T23:58:50.880Z,17.20
